map of LUD home
Great Circle Mapper logo
LUD - Airport
Location
City:  Luderitz, Namibia
Name:Diaz Point
ICAO / IATA:FYLZ / LUD

Details
Type:Airport (Aerodrome, Airfield)
Latitude:2641'15"S (-26.687368)
Longitude:1514'34"E (15.242861)
Datum:WGS 1984
Elevation:457 ft (139 m)
Runways:2
Longest:6004 × 98 ft (1830 × 30 m), paved

Time
Time Zone:UTC+1 (DST+2)
Local Time:

Weather
METAR:FYLZ 301000Z AUTO 03015KT //// // ////// 32/03 Q1017

Related Locations
Nearby:
Farthest:PHHF: 12216 mi / 19660 km
Tern Island [French Frigate Shoals Airport], Hawaii, HI, US

Find:

   beyond  
but within

Other Information
Maps:
NOTAMs:
Links:
Sources:

  
flag of Namibia   

Sectional Chart

Flight Planning
at skyvector.com

Satellite Image

Google Maps Satellite View

 

Copyright © 2004-2014 Karl L. Swartz. All rights reserved.
The Great Circle Mapper name and logo are trademarks of the Great Circle Mapper.
All other trademarks mentioned herein belong to their respective owners.
Please see credits for attibutions and further copyright information.

  Follow gcmap on Facebook Follow gcmap on Twitter

hCard Microformat

Geo Microformat